createdAt,value
2019-02-25T00:01:22.817Z,57.99
2019-02-25T00:04:36.782Z,57.78
2019-02-25T00:07:50.712Z,57.72
2019-02-25T00:11:04.668Z,58.34
2019-02-25T00:14:18.537Z,58.32
2019-02-25T00:17:32.477Z,58.10
2019-02-25T00:20:46.420Z,58.47
2019-02-25T00:24:00.383Z,59.83
2019-02-25T00:27:14.255Z,60.11
2019-02-25T00:30:28.101Z,59.51
2019-02-25T00:33:41.935Z,59.73
2019-02-25T00:36:55.776Z,59.10
2019-02-25T00:40:11.439Z,58.79
2019-02-25T00:43:25.245Z,57.65
2019-02-25T00:46:39.457Z,57.36
2019-02-25T00:49:53.384Z,57.84
2019-02-25T00:53:07.325Z,57.27
2019-02-25T00:56:21.178Z,56.61
2019-02-25T00:59:34.989Z,55.24
2019-02-25T01:02:48.859Z,55.35
2019-02-25T01:06:03.012Z,54.69
2019-02-25T01:09:17.039Z,54.32
2019-02-25T01:12:30.886Z,54.73
2019-02-25T01:15:44.804Z,54.40
2019-02-25T01:18:58.652Z,53.24
2019-02-25T01:22:12.500Z,53.32
2019-02-25T01:25:26.459Z,54.18
2019-02-25T01:28:40.315Z,54.43
2019-02-25T01:31:54.148Z,54.43
2019-02-25T01:35:11.253Z,54.27
2019-02-25T01:38:25.104Z,54.28
2019-02-25T01:41:38.938Z,54.81
2019-02-25T01:44:52.787Z,55.27
2019-02-25T01:48:08.031Z,55.86
2019-02-25T01:51:23.084Z,55.17
2019-02-25T01:54:36.931Z,54.59
2019-02-25T01:57:50.777Z,53.51
2019-02-25T02:01:04.704Z,52.79
2019-02-25T02:04:19.149Z,52.25
2019-02-25T02:07:32.974Z,51.57
2019-02-25T02:10:46.814Z,50.78
2019-02-25T02:14:00.777Z,51.19
2019-02-25T02:17:14.588Z,50.20
2019-02-25T02:20:28.508Z,49.62
2019-02-25T02:23:42.380Z,50.20
2019-02-25T02:26:56.250Z,50.06
2019-02-25T02:30:21.079Z,49.91
2019-02-25T02:33:35.112Z,49.35
2019-02-25T02:36:48.961Z,49.98
2019-02-25T02:40:05.726Z,50.36
2019-02-25T02:43:19.556Z,49.73
2019-02-25T02:46:37.675Z,48.61
2019-02-25T02:49:51.518Z,47.93
2019-02-25T02:53:05.384Z,48.35
2019-02-25T02:56:19.216Z,49.49
2019-02-25T02:59:33.128Z,50.11
2019-02-25T03:02:46.969Z,51.61
2019-02-25T03:06:00.824Z,51.21
2019-02-25T03:09:14.684Z,51.07
2019-02-25T03:12:28.524Z,51.07
2019-02-25T03:15:42.367Z,52.80
2019-02-25T03:18:56.202Z,52.57
2019-02-25T03:22:12.443Z,52.57
2019-02-25T03:25:26.298Z,53.05
2019-02-25T03:28:40.152Z,53.09
2019-02-25T03:31:54.006Z,54.46
2019-02-25T03:35:07.930Z,53.92
2019-02-25T03:38:21.774Z,54.10
2019-02-25T03:41:35.600Z,54.21
2019-02-25T03:44:49.461Z,54.04
2019-02-25T03:48:03.317Z,54.92
2019-02-25T03:51:17.137Z,56.15
2019-02-25T03:54:31.083Z,55.58
2019-02-25T03:57:45.338Z,56.62
2019-02-25T04:00:59.172Z,57.40
2019-02-25T04:04:13.009Z,57.91
2019-02-25T04:07:26.940Z,57.44
2019-02-25T04:10:40.793Z,57.98
2019-02-25T04:13:54.646Z,58.42
2019-02-25T04:17:08.464Z,58.16
2019-02-25T04:20:22.380Z,57.58
2019-02-25T04:23:39.225Z,57.77
2019-02-25T04:26:55.617Z,58.13
2019-02-25T04:30:14.520Z,58.27
2019-02-25T04:33:28.379Z,58.58
2019-02-25T04:36:42.190Z,59.25
2019-02-25T04:39:56.039Z,59.77
2019-02-25T04:43:09.872Z,59.94
2019-02-25T04:46:23.867Z,59.20
2019-02-25T04:49:37.740Z,58.91
2019-02-25T04:52:51.660Z,59.38
2019-02-25T04:56:05.500Z,58.55
2019-02-25T04:59:19.355Z,57.62
2019-02-25T05:02:33.228Z,57.19
2019-02-25T05:05:47.076Z,57.37
2019-02-25T05:09:00.912Z,57.48
2019-02-25T05:12:14.760Z,56.78
2019-02-25T05:15:30.215Z,57.44
2019-02-25T05:18:46.665Z,57.12
2019-02-25T05:22:00.518Z,56.91
2019-02-25T05:25:14.395Z,56.95
2019-02-25T05:28:28.210Z,57.18
2019-02-25T05:31:42.056Z,57.84
2019-02-25T05:34:55.878Z,57.78
2019-02-25T05:38:09.723Z,57.57
2019-02-25T05:41:23.552Z,58.25
2019-02-25T05:44:37.374Z,57.67
2019-02-25T05:47:54.088Z,58.27
2019-02-25T05:51:08.039Z,58.37
2019-02-25T05:54:21.891Z,58.73
2019-02-25T05:57:35.753Z,59.13
2019-02-25T06:00:49.598Z,59.98
2019-02-25T06:04:03.443Z,59.90
2019-02-25T06:07:17.315Z,60.70
2019-02-25T06:10:31.231Z,60.93
2019-02-25T06:13:45.085Z,61.83
2019-02-25T06:16:58.901Z,62.62
2019-02-25T06:20:13.949Z,62.86
2019-02-25T06:23:27.792Z,63.37
2019-02-25T06:26:41.750Z,62.90
2019-02-25T06:29:55.599Z,63.26
2019-02-25T06:33:09.439Z,63.60
2019-02-25T06:36:23.260Z,63.36
2019-02-25T06:39:37.120Z,63.19
2019-02-25T06:42:50.948Z,63.18
2019-02-25T06:46:04.780Z,63.88
2019-02-25T06:49:18.641Z,64.29
2019-02-25T06:52:32.454Z,64.24
2019-02-25T06:55:46.295Z,63.36
2019-02-25T06:59:00.158Z,63.01
2019-02-25T07:02:13.977Z,62.76
2019-02-25T07:05:45.178Z,62.92
2019-02-25T07:09:06.803Z,63.53
2019-02-25T07:12:25.342Z,63.67
2019-02-25T07:15:43.827Z,63.55
2019-02-25T07:19:05.598Z,62.88
2019-02-25T07:22:27.549Z,62.50
2019-02-25T07:25:55.689Z,62.50
2019-02-25T07:29:11.414Z,62.29
2019-02-25T07:32:30.270Z,62.00
2019-02-25T07:35:46.274Z,61.71
2019-02-25T07:39:02.001Z,61.29
2019-02-25T07:42:34.299Z,60.21
2019-02-25T07:45:52.882Z,59.48
2019-02-25T07:49:17.583Z,58.11
2019-02-25T07:52:36.231Z,58.06
2019-02-25T07:55:52.050Z,56.43
2019-02-25T07:59:19.633Z,55.87
2019-02-25T08:02:35.402Z,56.09
2019-02-25T08:05:51.144Z,55.89
2019-02-25T08:09:13.640Z,54.93
2019-02-25T08:12:32.376Z,54.11
2019-02-25T08:15:48.133Z,53.46
2019-02-25T08:19:09.758Z,52.90
2019-02-25T08:22:36.739Z,52.16
2019-02-25T08:25:55.543Z,50.74
2019-02-25T08:29:11.375Z,49.05
2019-02-25T08:32:36.032Z,47.71
2019-02-25T08:36:12.370Z,46.99
2019-02-25T08:39:28.756Z,46.40
2019-02-25T08:42:44.273Z,45.70
2019-02-25T08:46:18.301Z,44.75
2019-02-25T08:49:34.063Z,43.09
2019-02-25T08:52:47.970Z,41.70
2019-02-25T08:56:02.034Z,40.49
2019-02-25T08:59:15.888Z,39.71
2019-02-25T09:02:29.730Z,38.63
2019-02-25T09:05:43.578Z,37.61
2019-02-25T09:08:57.534Z,34.46
2019-02-25T09:12:11.384Z,33.39
2019-02-25T09:15:25.239Z,33.10
2019-02-25T09:18:39.413Z,31.74
2019-02-25T09:21:53.324Z,31.56
2019-02-25T09:25:13.214Z,29.18
2019-02-25T09:28:27.065Z,29.49
2019-02-25T09:31:40.964Z,30.27
2019-02-25T09:34:54.784Z,29.17
2019-02-25T09:38:08.649Z,30.24
2019-02-25T09:41:29.683Z,30.32
2019-02-25T09:44:38.306Z,31.31
2019-02-25T09:47:52.152Z,31.84
2019-02-25T09:51:06.082Z,31.41
2019-02-25T09:54:19.926Z,30.46
2019-02-25T09:57:33.796Z,30.61
2019-02-25T10:00:47.712Z,31.08
2019-02-25T10:04:01.681Z,30.88
2019-02-25T10:07:15.629Z,30.70
2019-02-25T10:10:29.446Z,30.14
2019-02-25T10:13:43.372Z,29.65
2019-02-25T10:16:57.231Z,28.43
2019-02-25T10:20:11.163Z,27.75
2019-02-25T10:23:25.036Z,26.20
2019-02-25T10:26:38.875Z,24.87
2019-02-25T10:29:52.731Z,22.88
2019-02-25T10:33:06.586Z,20.88
2019-02-25T10:36:20.711Z,19.90
2019-02-25T10:39:34.798Z,18.86
2019-02-25T10:42:48.695Z,17.91
2019-02-25T10:46:02.625Z,17.63
2019-02-25T10:49:16.488Z,16.75
2019-02-25T10:52:30.439Z,16.14
2019-02-25T10:55:57.251Z,15.45
2019-02-25T10:59:11.104Z,14.95
2019-02-25T11:02:24.950Z,14.59
2019-02-25T11:05:38.922Z,14.78
2019-02-25T11:08:54.684Z,14.53
2019-02-25T11:12:08.616Z,13.52
2019-02-25T11:15:22.484Z,12.80
2019-02-25T11:18:36.303Z,12.27
2019-02-25T11:21:50.147Z,12.54
2019-02-25T11:25:07.299Z,12.14
2019-02-25T11:28:25.109Z,12.61
2019-02-25T11:31:37.008Z,12.67
2019-02-25T11:34:50.860Z,12.97
2019-02-25T11:38:04.817Z,13.17
2019-02-25T11:41:18.774Z,11.71
2019-02-25T11:44:32.703Z,12.09
2019-02-25T11:47:46.588Z,12.32
2019-02-25T11:51:00.462Z,12.04
2019-02-25T11:54:14.307Z,11.28
2019-02-25T11:57:28.253Z,11.60
2019-02-25T12:00:45.168Z,11.30
2019-02-25T12:03:59.099Z,10.49
2019-02-25T12:07:12.958Z,8.68
2019-02-25T12:10:26.863Z,9.60
2019-02-25T12:13:40.821Z,9.99
2019-02-25T12:16:54.697Z,9.99
2019-02-25T12:20:10.923Z,9.62
2019-02-25T12:23:24.816Z,7.73
2019-02-25T12:26:38.686Z,7.84
2019-02-25T12:29:52.561Z,8.94
2019-02-25T12:33:06.643Z,7.80
2019-02-25T12:36:20.490Z,7.16
2019-02-25T12:39:34.342Z,7.39
2019-02-25T12:42:48.322Z,6.13
2019-02-25T12:46:02.255Z,5.66
2019-02-25T12:49:16.107Z,6.77
2019-02-25T12:52:29.936Z,6.86
2019-02-25T12:55:43.779Z,6.30
2019-02-25T12:58:57.652Z,7.06
2019-02-25T13:02:11.569Z,5.35
2019-02-25T13:05:25.536Z,7.02
2019-02-25T13:08:39.402Z,7.69
2019-02-25T13:11:53.246Z,6.43
2019-02-25T13:15:15.008Z,6.00
2019-02-25T13:18:28.868Z,6.56
2019-02-25T13:21:42.733Z,6.36
2019-02-25T13:24:56.608Z,6.21
2019-02-25T13:28:10.471Z,6.58
2019-02-25T13:31:24.346Z,7.40
2019-02-25T13:34:38.276Z,6.44
2019-02-25T13:37:52.614Z,6.05
2019-02-25T13:41:06.470Z,6.14
2019-02-25T13:44:20.588Z,7.58
2019-02-25T13:47:34.409Z,6.98
2019-02-25T13:50:48.266Z,7.20
2019-02-25T13:54:03.065Z,6.71
2019-02-25T13:57:17.052Z,5.09
2019-02-25T14:00:31.028Z,5.29
2019-02-25T14:03:44.851Z,5.38
2019-02-25T14:06:58.740Z,4.19
2019-02-25T14:10:13.978Z,4.12
2019-02-25T14:13:27.942Z,5.34
2019-02-25T14:16:42.014Z,4.23
2019-02-25T14:19:55.845Z,4.27
2019-02-25T14:23:09.675Z,5.65
2019-02-25T14:26:23.982Z,5.88
2019-02-25T14:29:37.826Z,4.15
2019-02-25T14:32:53.527Z,3.64
2019-02-25T14:36:07.600Z,3.26
2019-02-25T14:39:24.863Z,3.13
2019-02-25T14:42:38.846Z,4.40
2019-02-25T14:45:55.799Z,4.44
2019-02-25T14:49:09.175Z,2.98
2019-02-25T14:52:24.466Z,3.24
2019-02-25T14:55:40.695Z,3.30
2019-02-25T14:58:54.819Z,3.39
2019-02-25T15:02:09.291Z,2.70
2019-02-25T15:05:24.745Z,2.96
2019-02-25T15:08:38.727Z,3.17
2019-02-25T15:11:55.561Z,2.76
2019-02-25T15:15:13.620Z,2.68
2019-02-25T15:18:29.110Z,3.47
2019-02-25T15:21:45.141Z,3.37
2019-02-25T15:24:59.548Z,3.63
2019-02-25T15:28:15.658Z,3.03
2019-02-25T15:31:29.545Z,3.57
2019-02-25T15:34:44.122Z,7.19
2019-02-25T15:38:00.083Z,10.67
2019-02-25T15:41:13.860Z,12.29
2019-02-25T15:44:27.924Z,13.63
2019-02-25T15:47:42.495Z,14.40
2019-02-25T15:51:00.200Z,15.60
2019-02-25T15:54:13.449Z,15.84
2019-02-25T15:57:28.535Z,15.84
2019-02-25T16:00:44.103Z,15.74
2019-02-25T16:04:02.250Z,17.40
2019-02-25T16:07:13.910Z,18.34
2019-02-25T16:10:28.296Z,20.51
2019-02-25T16:13:42.389Z,20.53
2019-02-25T16:16:56.339Z,20.79
2019-02-25T16:20:17.547Z,24.52
2019-02-25T16:23:34.129Z,25.47
2019-02-25T16:26:48.794Z,26.52
2019-02-25T16:30:06.688Z,27.83
2019-02-25T16:33:20.600Z,28.41
2019-02-25T16:36:34.470Z,28.55
2019-02-25T16:39:48.314Z,28.62
2019-02-25T16:43:07.170Z,28.61
2019-02-25T16:46:21.083Z,29.98
2019-02-25T16:49:36.199Z,30.92
2019-02-25T16:52:51.169Z,31.13
2019-02-25T16:56:07.376Z,32.93
2019-02-25T16:59:23.013Z,34.51
2019-02-25T17:02:38.474Z,34.85
2019-02-25T17:05:53.485Z,35.67
2019-02-25T17:09:07.448Z,36.09
2019-02-25T17:12:23.223Z,36.97
2019-02-25T17:15:37.436Z,38.63
2019-02-25T17:18:51.299Z,38.98
2019-02-25T17:22:05.252Z,39.96
2019-02-25T17:25:19.797Z,40.09
2019-02-25T17:28:33.689Z,40.50
2019-02-25T17:31:47.544Z,42.15
2019-02-25T17:35:03.048Z,42.53
2019-02-25T17:38:18.096Z,42.70
2019-02-25T17:41:33.638Z,43.48
2019-02-25T17:44:48.763Z,44.35
2019-02-25T17:48:08.064Z,44.26
2019-02-25T17:51:20.850Z,44.84
2019-02-25T17:54:37.247Z,44.22
2019-02-25T17:57:52.016Z,44.32
2019-02-25T18:01:08.454Z,44.82
2019-02-25T18:04:24.396Z,45.61
2019-02-25T18:07:39.881Z,45.41
2019-02-25T18:10:54.535Z,45.56
2019-02-25T18:14:09.555Z,45.32
2019-02-25T18:17:24.859Z,46.89
2019-02-25T18:20:39.028Z,47.10
2019-02-25T18:23:53.189Z,47.58
2019-02-25T18:27:09.673Z,47.42
2019-02-25T18:30:26.778Z,48.03
2019-02-25T18:33:42.024Z,48.36
2019-02-25T18:36:57.145Z,48.87
2019-02-25T18:40:14.022Z,48.82
2019-02-25T18:43:29.941Z,48.49
2019-02-25T18:46:45.977Z,48.79
2019-02-25T18:50:00.950Z,48.90
2019-02-25T18:53:16.621Z,49.21
2019-02-25T18:56:31.268Z,50.11
2019-02-25T18:59:45.263Z,50.01
2019-02-25T19:03:04.799Z,51.15
2019-02-25T19:06:21.416Z,51.15
2019-02-25T19:09:36.857Z,51.63
2019-02-25T19:12:51.599Z,51.37
2019-02-25T19:16:07.441Z,51.76
2019-02-25T19:19:21.897Z,51.48
2019-02-25T19:22:37.744Z,51.37
2019-02-25T19:25:52.153Z,52.35
2019-02-25T19:29:06.268Z,53.04
2019-02-25T19:32:20.966Z,52.46
2019-02-25T19:35:38.339Z,53.39
2019-02-25T19:38:51.976Z,53.91
2019-02-25T19:42:05.868Z,54.25
2019-02-25T19:45:20.356Z,55.16
2019-02-25T19:48:34.323Z,54.88
2019-02-25T19:51:50.201Z,55.10
2019-02-25T19:55:07.967Z,55.44
2019-02-25T19:58:21.748Z,55.25
2019-02-25T20:01:35.601Z,55.38
2019-02-25T20:04:51.916Z,56.16
2019-02-25T20:08:05.455Z,56.13
2019-02-25T20:11:19.929Z,55.86
2019-02-25T20:14:33.870Z,56.04
2019-02-25T20:17:48.838Z,56.59
2019-02-25T20:21:05.679Z,56.71
2019-02-25T20:24:21.643Z,57.25
2019-02-25T20:27:35.839Z,57.84
2019-02-25T20:30:51.631Z,57.73
2019-02-25T20:34:05.810Z,57.94
2019-02-25T20:37:22.790Z,57.70
2019-02-25T20:40:35.542Z,57.84
2019-02-25T20:43:53.907Z,58.58
2019-02-25T20:47:05.366Z,58.94
2019-02-25T20:50:20.324Z,59.10
2019-02-25T20:53:34.208Z,59.23
2019-02-25T20:56:49.101Z,59.75
2019-02-25T21:00:08.988Z,59.55
2019-02-25T21:03:25.397Z,59.64
2019-02-25T21:06:41.802Z,60.48
2019-02-25T21:09:57.003Z,60.44
2019-02-25T21:13:11.550Z,60.37
2019-02-25T21:16:26.294Z,60.32
2019-02-25T21:19:42.474Z,61.06
2019-02-25T21:23:00.824Z,61.23
2019-02-25T21:26:13.380Z,61.68
2019-02-25T21:29:29.288Z,61.56
2019-02-25T21:32:45.632Z,61.49
2019-02-25T21:35:59.361Z,61.17
2019-02-25T21:39:14.663Z,61.15
2019-02-25T21:42:29.096Z,60.31
2019-02-25T21:45:46.091Z,60.16
2019-02-25T21:49:01.592Z,60.59
2019-02-25T21:52:15.320Z,60.45
2019-02-25T21:55:32.336Z,60.83
2019-02-25T21:58:46.722Z,61.69
2019-02-25T22:02:03.633Z,62.00
2019-02-25T22:05:18.943Z,62.42
2019-02-25T22:08:35.965Z,62.87
2019-02-25T22:11:49.176Z,63.20
2019-02-25T22:15:06.220Z,63.51
2019-02-25T22:18:20.165Z,63.47
2019-02-25T22:21:33.999Z,64.41
2019-02-25T22:24:47.848Z,64.35
2019-02-25T22:28:03.389Z,64.21
2019-02-25T22:31:18.107Z,64.58
2019-02-25T22:34:32.157Z,64.65
2019-02-25T22:37:49.363Z,64.87
2019-02-25T22:41:02.302Z,64.61
2019-02-25T22:44:16.216Z,64.76
2019-02-25T22:47:30.043Z,65.12
2019-02-25T22:50:43.906Z,65.38
2019-02-25T22:53:57.781Z,65.83
2019-02-25T22:57:11.635Z,65.71
2019-02-25T23:00:42.468Z,65.70
2019-02-25T23:03:57.360Z,66.41
2019-02-25T23:07:13.075Z,66.50
2019-02-25T23:10:27.452Z,66.70
2019-02-25T23:13:42.783Z,66.55
2019-02-25T23:16:59.833Z,67.08
2019-02-25T23:20:13.915Z,67.14
2019-02-25T23:23:28.673Z,67.78
2019-02-25T23:26:43.634Z,68.01
2019-02-25T23:29:57.502Z,68.10
2019-02-25T23:33:12.097Z,68.36
2019-02-25T23:36:27.116Z,68.52
2019-02-25T23:39:42.689Z,68.82
2019-02-25T23:42:56.699Z,68.78
2019-02-25T23:46:10.556Z,68.87
2019-02-25T23:49:27.306Z,68.63
2019-02-25T23:52:40.137Z,69.07
2019-02-25T23:55:54.771Z,69.44
2019-02-25T23:59:12.668Z,69.38
